sensor_id;sensor_type;location;lat;lon;timestamp;P1;durP1;ratioP1;P2;durP2;ratioP2
912;SDS011;443;51.448;7.028;2023-11-22T00:00:21;6.77;;;4.20;;
912;SDS011;443;51.448;7.028;2023-11-22T00:02:48;4.60;;;3.30;;
912;SDS011;443;51.448;7.028;2023-11-22T00:05:15;5.13;;;3.70;;
912;SDS011;443;51.448;7.028;2023-11-22T00:07:42;7.00;;;3.60;;
912;SDS011;443;51.448;7.028;2023-11-22T00:10:09;4.07;;;3.40;;
912;SDS011;443;51.448;7.028;2023-11-22T00:12:37;8.30;;;4.43;;
912;SDS011;443;51.448;7.028;2023-11-22T00:15:04;6.57;;;4.33;;
912;SDS011;443;51.448;7.028;2023-11-22T00:17:32;4.30;;;3.40;;
912;SDS011;443;51.448;7.028;2023-11-22T00:19:59;5.30;;;3.80;;
912;SDS011;443;51.448;7.028;2023-11-22T00:22:27;3.13;;;2.70;;
912;SDS011;443;51.448;7.028;2023-11-22T00:24:57;4.63;;;3.90;;
912;SDS011;443;51.448;7.028;2023-11-22T00:27:24;5.50;;;3.70;;
912;SDS011;443;51.448;7.028;2023-11-22T00:29:52;5.67;;;4.00;;
912;SDS011;443;51.448;7.028;2023-11-22T00:32:19;7.33;;;4.10;;
912;SDS011;443;51.448;7.028;2023-11-22T00:34:45;4.57;;;3.63;;
912;SDS011;443;51.448;7.028;2023-11-22T00:37:13;3.33;;;2.90;;
912;SDS011;443;51.448;7.028;2023-11-22T00:39:40;4.53;;;3.83;;
912;SDS011;443;51.448;7.028;2023-11-22T00:42:07;3.40;;;3.10;;
912;SDS011;443;51.448;7.028;2023-11-22T00:44:33;4.67;;;3.10;;
912;SDS011;443;51.448;7.028;2023-11-22T00:47:02;4.60;;;3.30;;
912;SDS011;443;51.448;7.028;2023-11-22T00:49:30;4.33;;;2.93;;
912;SDS011;443;51.448;7.028;2023-11-22T00:51:57;8.80;;;2.87;;
912;SDS011;443;51.448;7.028;2023-11-22T00:54:24;5.53;;;4.30;;
912;SDS011;443;51.448;7.028;2023-11-22T00:56:51;4.13;;;3.70;;
912;SDS011;443;51.448;7.028;2023-11-22T00:59:18;8.50;;;2.70;;
912;SDS011;443;51.448;7.028;2023-11-22T01:01:45;5.07;;;3.80;;
912;SDS011;443;51.448;7.028;2023-11-22T01:04:13;4.00;;;3.07;;
912;SDS011;443;51.448;7.028;2023-11-22T01:06:40;3.17;;;2.83;;
912;SDS011;443;51.448;7.028;2023-11-22T01:09:06;11.10;;;3.40;;
912;SDS011;443;51.448;7.028;2023-11-22T01:11:33;9.43;;;3.60;;
912;SDS011;443;51.448;7.028;2023-11-22T01:14:00;6.20;;;3.83;;
912;SDS011;443;51.448;7.028;2023-11-22T01:16:27;5.83;;;3.70;;
912;SDS011;443;51.448;7.028;2023-11-22T01:18:54;5.67;;;4.10;;
912;SDS011;443;51.448;7.028;2023-11-22T01:21:22;5.00;;;4.27;;
912;SDS011;443;51.448;7.028;2023-11-22T01:23:49;6.23;;;3.10;;
912;SDS011;443;51.448;7.028;2023-11-22T01:26:15;3.30;;;3.00;;
912;SDS011;443;51.448;7.028;2023-11-22T01:28:42;6.03;;;3.77;;
912;SDS011;443;51.448;7.028;2023-11-22T01:31:10;4.87;;;3.30;;
912;SDS011;443;51.448;7.028;2023-11-22T01:33:38;3.07;;;2.77;;
912;SDS011;443;51.448;7.028;2023-11-22T01:36:05;4.50;;;3.30;;
912;SDS011;443;51.448;7.028;2023-11-22T01:38:34;5.93;;;3.33;;
912;SDS011;443;51.448;7.028;2023-11-22T01:41:00;6.97;;;5.07;;
912;SDS011;443;51.448;7.028;2023-11-22T01:43:27;4.73;;;4.20;;
912;SDS011;443;51.448;7.028;2023-11-22T01:45:54;4.03;;;3.10;;
912;SDS011;443;51.448;7.028;2023-11-22T01:48:21;8.80;;;4.03;;
912;SDS011;443;51.448;7.028;2023-11-22T01:50:48;6.30;;;4.17;;
912;SDS011;443;51.448;7.028;2023-11-22T01:53:15;4.77;;;3.73;;
912;SDS011;443;51.448;7.028;2023-11-22T01:55:44;5.07;;;3.60;;
912;SDS011;443;51.448;7.028;2023-11-22T01:58:12;4.10;;;3.37;;
912;SDS011;443;51.448;7.028;2023-11-22T02:00:42;6.70;;;4.27;;
912;SDS011;443;51.448;7.028;2023-11-22T02:03:11;5.53;;;3.40;;
912;SDS011;443;51.448;7.028;2023-11-22T02:05:39;6.93;;;4.30;;
912;SDS011;443;51.448;7.028;2023-11-22T02:08:08;4.53;;;3.93;;
912;SDS011;443;51.448;7.028;2023-11-22T02:10:35;4.57;;;4.17;;
912;SDS011;443;51.448;7.028;2023-11-22T02:13:04;5.17;;;3.60;;
912;SDS011;443;51.448;7.028;2023-11-22T02:15:32;6.73;;;4.70;;
912;SDS011;443;51.448;7.028;2023-11-22T02:17:59;7.13;;;4.97;;
912;SDS011;443;51.448;7.028;2023-11-22T02:20:26;4.67;;;4.20;;
912;SDS011;443;51.448;7.028;2023-11-22T02:22:53;4.90;;;4.37;;
912;SDS011;443;51.448;7.028;2023-11-22T02:25:22;5.20;;;4.50;;
912;SDS011;443;51.448;7.028;2023-11-22T02:27:49;5.93;;;4.20;;
912;SDS011;443;51.448;7.028;2023-11-22T02:30:15;6.40;;;4.37;;
912;SDS011;443;51.448;7.028;2023-11-22T02:32:42;8.27;;;5.20;;
912;SDS011;443;51.448;7.028;2023-11-22T02:35:10;6.20;;;4.13;;
912;SDS011;443;51.448;7.028;2023-11-22T02:37:38;6.40;;;5.20;;
912;SDS011;443;51.448;7.028;2023-11-22T02:40:05;6.03;;;5.00;;
912;SDS011;443;51.448;7.028;2023-11-22T02:42:39;6.30;;;4.93;;
912;SDS011;443;51.448;7.028;2023-11-22T02:45:06;5.17;;;4.50;;
912;SDS011;443;51.448;7.028;2023-11-22T02:47:33;6.40;;;3.40;;
912;SDS011;443;51.448;7.028;2023-11-22T02:50:01;6.57;;;4.90;;
912;SDS011;443;51.448;7.028;2023-11-22T02:52:30;5.27;;;4.13;;
912;SDS011;443;51.448;7.028;2023-11-22T02:54:57;5.20;;;4.23;;
912;SDS011;443;51.448;7.028;2023-11-22T02:57:23;4.97;;;4.40;;
912;SDS011;443;51.448;7.028;2023-11-22T02:59:52;10.17;;;4.60;;
912;SDS011;443;51.448;7.028;2023-11-22T03:02:19;5.30;;;4.20;;
912;SDS011;443;51.448;7.028;2023-11-22T03:04:45;6.27;;;4.93;;
912;SDS011;443;51.448;7.028;2023-11-22T03:07:12;5.30;;;4.60;;
912;SDS011;443;51.448;7.028;2023-11-22T03:09:39;4.83;;;4.23;;
912;SDS011;443;51.448;7.028;2023-11-22T03:12:08;4.70;;;4.20;;
912;SDS011;443;51.448;7.028;2023-11-22T03:14:37;7.77;;;5.60;;
912;SDS011;443;51.448;7.028;2023-11-22T03:17:06;8.23;;;6.27;;
912;SDS011;443;51.448;7.028;2023-11-22T03:19:33;7.50;;;5.80;;
912;SDS011;443;51.448;7.028;2023-11-22T03:22:00;8.47;;;5.93;;
912;SDS011;443;51.448;7.028;2023-11-22T03:24:28;6.47;;;5.07;;
912;SDS011;443;51.448;7.028;2023-11-22T03:26:54;8.07;;;5.33;;
912;SDS011;443;51.448;7.028;2023-11-22T03:29:23;6.50;;;5.10;;
912;SDS011;443;51.448;7.028;2023-11-22T03:31:50;8.83;;;6.00;;
912;SDS011;443;51.448;7.028;2023-11-22T03:34:19;6.93;;;5.00;;
912;SDS011;443;51.448;7.028;2023-11-22T03:36:46;7.97;;;5.67;;
912;SDS011;443;51.448;7.028;2023-11-22T03:39:13;6.87;;;4.90;;
912;SDS011;443;51.448;7.028;2023-11-22T03:41:40;7.77;;;5.10;;
912;SDS011;443;51.448;7.028;2023-11-22T03:44:08;7.40;;;5.20;;
912;SDS011;443;51.448;7.028;2023-11-22T03:46:34;12.20;;;6.10;;
912;SDS011;443;51.448;7.028;2023-11-22T03:49:01;7.17;;;5.40;;
912;SDS011;443;51.448;7.028;2023-11-22T03:51:30;8.63;;;5.27;;
912;SDS011;443;51.448;7.028;2023-11-22T03:53:57;5.83;;;4.13;;
912;SDS011;443;51.448;7.028;2023-11-22T03:56:23;6.60;;;5.33;;
912;SDS011;443;51.448;7.028;2023-11-22T03:58:50;8.17;;;5.03;;
912;SDS011;443;51.448;7.028;2023-11-22T04:01:17;9.23;;;5.00;;
912;SDS011;443;51.448;7.028;2023-11-22T04:03:45;7.60;;;4.80;;
912;SDS011;443;51.448;7.028;2023-11-22T04:06:13;6.20;;;4.57;;
912;SDS011;443;51.448;7.028;2023-11-22T04:08:41;5.43;;;4.37;;
912;SDS011;443;51.448;7.028;2023-11-22T04:11:09;5.03;;;4.53;;
912;SDS011;443;51.448;7.028;2023-11-22T04:13:36;7.57;;;4.70;;
912;SDS011;443;51.448;7.028;2023-11-22T04:16:03;9.80;;;4.47;;
912;SDS011;443;51.448;7.028;2023-11-22T04:18:33;6.27;;;4.17;;
912;SDS011;443;51.448;7.028;2023-11-22T04:21:00;6.93;;;4.97;;
912;SDS011;443;51.448;7.028;2023-11-22T04:23:29;7.43;;;4.77;;
912;SDS011;443;51.448;7.028;2023-11-22T04:25:57;7.67;;;4.80;;
912;SDS011;443;51.448;7.028;2023-11-22T04:28:24;6.17;;;5.07;;
912;SDS011;443;51.448;7.028;2023-11-22T04:30:51;5.30;;;4.27;;
912;SDS011;443;51.448;7.028;2023-11-22T04:33:18;11.20;;;5.47;;
912;SDS011;443;51.448;7.028;2023-11-22T04:35:45;6.07;;;5.27;;
912;SDS011;443;51.448;7.028;2023-11-22T04:38:12;6.53;;;4.57;;
912;SDS011;443;51.448;7.028;2023-11-22T04:40:38;7.00;;;4.53;;
912;SDS011;443;51.448;7.028;2023-11-22T04:43:06;6.40;;;4.27;;
912;SDS011;443;51.448;7.028;2023-11-22T04:45:33;5.20;;;4.10;;
912;SDS011;443;51.448;7.028;2023-11-22T04:48:00;6.37;;;5.30;;
912;SDS011;443;51.448;7.028;2023-11-22T04:50:27;9.63;;;4.63;;
912;SDS011;443;51.448;7.028;2023-11-22T04:52:54;7.50;;;4.67;;
912;SDS011;443;51.448;7.028;2023-11-22T04:55:20;4.70;;;4.10;;
912;SDS011;443;51.448;7.028;2023-11-22T04:57:48;8.40;;;4.90;;
912;SDS011;443;51.448;7.028;2023-11-22T05:00:17;9.03;;;4.70;;
912;SDS011;443;51.448;7.028;2023-11-22T05:02:43;6.03;;;4.00;;
912;SDS011;443;51.448;7.028;2023-11-22T05:05:10;5.10;;;3.77;;
912;SDS011;443;51.448;7.028;2023-11-22T05:07:37;5.80;;;4.20;;
912;SDS011;443;51.448;7.028;2023-11-22T05:10:04;5.40;;;4.20;;
912;SDS011;443;51.448;7.028;2023-11-22T05:12:33;5.43;;;3.60;;
912;SDS011;443;51.448;7.028;2023-11-22T05:15:00;5.10;;;3.77;;
912;SDS011;443;51.448;7.028;2023-11-22T05:17:28;4.90;;;3.20;;
912;SDS011;443;51.448;7.028;2023-11-22T05:19:55;5.60;;;4.40;;
912;SDS011;443;51.448;7.028;2023-11-22T05:22:22;6.13;;;4.80;;
912;SDS011;443;51.448;7.028;2023-11-22T05:24:48;5.83;;;3.50;;
912;SDS011;443;51.448;7.028;2023-11-22T05:27:15;5.40;;;3.83;;
912;SDS011;443;51.448;7.028;2023-11-22T05:29:42;6.30;;;4.10;;
912;SDS011;443;51.448;7.028;2023-11-22T05:32:09;5.77;;;4.40;;
912;SDS011;443;51.448;7.028;2023-11-22T05:34:37;5.60;;;3.43;;
912;SDS011;443;51.448;7.028;2023-11-22T05:37:05;4.67;;;3.27;;
912;SDS011;443;51.448;7.028;2023-11-22T05:39:32;4.80;;;3.73;;
912;SDS011;443;51.448;7.028;2023-11-22T05:41:59;4.23;;;3.40;;
912;SDS011;443;51.448;7.028;2023-11-22T05:44:25;8.03;;;3.90;;
912;SDS011;443;51.448;7.028;2023-11-22T05:46:52;4.20;;;3.70;;
912;SDS011;443;51.448;7.028;2023-11-22T05:49:19;4.40;;;3.67;;
912;SDS011;443;51.448;7.028;2023-11-22T05:51:48;4.83;;;3.40;;
912;SDS011;443;51.448;7.028;2023-11-22T05:54:15;6.07;;;4.23;;
912;SDS011;443;51.448;7.028;2023-11-22T05:56:42;9.50;;;5.27;;
912;SDS011;443;51.448;7.028;2023-11-22T05:59:09;4.60;;;3.70;;
912;SDS011;443;51.448;7.028;2023-11-22T06:01:36;4.70;;;3.30;;
912;SDS011;443;51.448;7.028;2023-11-22T06:04:02;3.80;;;3.03;;
912;SDS011;443;51.448;7.028;2023-11-22T06:06:29;4.60;;;3.43;;
912;SDS011;443;51.448;7.028;2023-11-22T06:08:58;6.07;;;3.60;;
912;SDS011;443;51.448;7.028;2023-11-22T06:11:25;4.20;;;3.80;;
912;SDS011;443;51.448;7.028;2023-11-22T06:13:52;5.67;;;3.40;;
912;SDS011;443;51.448;7.028;2023-11-22T06:16:18;3.80;;;3.20;;
912;SDS011;443;51.448;7.028;2023-11-22T06:18:45;6.57;;;3.20;;
912;SDS011;443;51.448;7.028;2023-11-22T06:21:12;5.43;;;3.43;;
912;SDS011;443;51.448;7.028;2023-11-22T06:23:39;4.73;;;4.00;;
912;SDS011;443;51.448;7.028;2023-11-22T06:26:07;4.40;;;3.63;;
912;SDS011;443;51.448;7.028;2023-11-22T06:28:34;5.93;;;3.07;;
912;SDS011;443;51.448;7.028;2023-11-22T06:31:01;4.20;;;3.40;;
912;SDS011;443;51.448;7.028;2023-11-22T06:33:28;5.77;;;3.30;;
912;SDS011;443;51.448;7.028;2023-11-22T06:35:55;4.53;;;3.23;;
912;SDS011;443;51.448;7.028;2023-11-22T06:38:22;6.10;;;2.93;;
912;SDS011;443;51.448;7.028;2023-11-22T06:40:48;4.13;;;3.10;;
912;SDS011;443;51.448;7.028;2023-11-22T06:43:17;6.67;;;3.03;;
912;SDS011;443;51.448;7.028;2023-11-22T06:45:44;7.20;;;3.50;;
912;SDS011;443;51.448;7.028;2023-11-22T06:48:11;5.90;;;4.00;;
912;SDS011;443;51.448;7.028;2023-11-22T06:50:38;4.97;;;3.47;;
912;SDS011;443;51.448;7.028;2023-11-22T06:53:05;4.40;;;3.20;;
912;SDS011;443;51.448;7.028;2023-11-22T06:55:32;6.20;;;3.37;;
912;SDS011;443;51.448;7.028;2023-11-22T06:57:59;4.37;;;3.13;;
912;SDS011;443;51.448;7.028;2023-11-22T07:00:27;4.17;;;3.10;;
912;SDS011;443;51.448;7.028;2023-11-22T07:02:53;3.93;;;3.10;;
912;SDS011;443;51.448;7.028;2023-11-22T07:05:21;8.30;;;3.47;;
912;SDS011;443;51.448;7.028;2023-11-22T07:07:48;5.00;;;3.40;;
912;SDS011;443;51.448;7.028;2023-11-22T07:10:15;5.00;;;3.80;;
912;SDS011;443;51.448;7.028;2023-11-22T07:12:45;3.27;;;2.97;;
912;SDS011;443;51.448;7.028;2023-11-22T07:15:12;5.70;;;3.53;;
912;SDS011;443;51.448;7.028;2023-11-22T07:17:41;6.00;;;3.50;;
912;SDS011;443;51.448;7.028;2023-11-22T07:20:08;5.47;;;3.77;;
912;SDS011;443;51.448;7.028;2023-11-22T07:22:40;6.80;;;3.93;;
912;SDS011;443;51.448;7.028;2023-11-22T07:25:08;4.47;;;3.37;;
912;SDS011;443;51.448;7.028;2023-11-22T07:27:43;5.53;;;3.80;;
912;SDS011;443;51.448;7.028;2023-11-22T07:30:11;4.30;;;3.60;;
912;SDS011;443;51.448;7.028;2023-11-22T07:32:40;5.27;;;4.30;;
912;SDS011;443;51.448;7.028;2023-11-22T07:35:07;6.40;;;3.77;;
912;SDS011;443;51.448;7.028;2023-11-22T07:37:34;6.07;;;3.93;;
912;SDS011;443;51.448;7.028;2023-11-22T07:40:04;5.43;;;3.50;;
912;SDS011;443;51.448;7.028;2023-11-22T07:42:34;5.90;;;4.03;;
912;SDS011;443;51.448;7.028;2023-11-22T07:45:01;6.03;;;4.17;;
912;SDS011;443;51.448;7.028;2023-11-22T07:47:28;4.93;;;3.63;;
912;SDS011;443;51.448;7.028;2023-11-22T07:49:56;6.33;;;4.10;;
912;SDS011;443;51.448;7.028;2023-11-22T07:52:24;4.03;;;3.00;;
912;SDS011;443;51.448;7.028;2023-11-22T07:54:54;4.07;;;3.53;;
912;SDS011;443;51.448;7.028;2023-11-22T07:57:21;6.33;;;4.60;;
912;SDS011;443;51.448;7.028;2023-11-22T07:59:48;6.13;;;4.37;;
912;SDS011;443;51.448;7.028;2023-11-22T08:02:15;5.63;;;3.90;;
912;SDS011;443;51.448;7.028;2023-11-22T08:04:43;5.40;;;4.00;;
912;SDS011;443;51.448;7.028;2023-11-22T08:07:13;7.50;;;3.47;;
912;SDS011;443;51.448;7.028;2023-11-22T08:09:40;3.50;;;2.90;;
912;SDS011;443;51.448;7.028;2023-11-22T08:12:07;5.87;;;3.70;;
912;SDS011;443;51.448;7.028;2023-11-22T08:14:36;5.10;;;2.83;;
912;SDS011;443;51.448;7.028;2023-11-22T08:17:02;5.40;;;4.03;;
912;SDS011;443;51.448;7.028;2023-11-22T08:19:30;5.50;;;3.77;;
912;SDS011;443;51.448;7.028;2023-11-22T08:21:57;4.80;;;3.07;;
912;SDS011;443;51.448;7.028;2023-11-22T08:24:25;4.87;;;4.00;;
912;SDS011;443;51.448;7.028;2023-11-22T08:26:52;7.30;;;5.00;;
912;SDS011;443;51.448;7.028;2023-11-22T08:29:18;5.40;;;4.40;;
912;SDS011;443;51.448;7.028;2023-11-22T08:31:45;7.87;;;4.57;;
912;SDS011;443;51.448;7.028;2023-11-22T08:34:13;6.50;;;3.93;;
912;SDS011;443;51.448;7.028;2023-11-22T08:36:40;3.77;;;3.27;;
912;SDS011;443;51.448;7.028;2023-11-22T08:39:07;5.40;;;3.63;;
912;SDS011;443;51.448;7.028;2023-11-22T08:41:35;3.70;;;2.90;;
912;SDS011;443;51.448;7.028;2023-11-22T08:44:03;4.47;;;3.30;;
912;SDS011;443;51.448;7.028;2023-11-22T08:46:31;3.93;;;3.30;;
912;SDS011;443;51.448;7.028;2023-11-22T08:48:58;6.07;;;3.67;;
912;SDS011;443;51.448;7.028;2023-11-22T08:51:25;4.00;;;3.03;;
912;SDS011;443;51.448;7.028;2023-11-22T08:53:52;5.63;;;2.70;;
912;SDS011;443;51.448;7.028;2023-11-22T08:56:18;4.20;;;2.77;;
912;SDS011;443;51.448;7.028;2023-11-22T08:58:47;5.00;;;3.80;;
912;SDS011;443;51.448;7.028;2023-11-22T09:01:13;6.33;;;3.50;;
912;SDS011;443;51.448;7.028;2023-11-22T09:03:40;6.97;;;3.87;;
912;SDS011;443;51.448;7.028;2023-11-22T09:06:08;9.10;;;3.53;;
912;SDS011;443;51.448;7.028;2023-11-22T09:08:35;7.73;;;3.93;;
912;SDS011;443;51.448;7.028;2023-11-22T09:11:02;6.87;;;4.20;;
912;SDS011;443;51.448;7.028;2023-11-22T09:13:31;16.40;;;5.20;;
912;SDS011;443;51.448;7.028;2023-11-22T09:15:59;5.37;;;4.07;;
912;SDS011;443;51.448;7.028;2023-11-22T09:18:26;3.60;;;2.67;;
912;SDS011;443;51.448;7.028;2023-11-22T09:20:52;8.73;;;3.20;;
912;SDS011;443;51.448;7.028;2023-11-22T09:23:19;5.30;;;3.70;;
912;SDS011;443;51.448;7.028;2023-11-22T09:25:46;5.83;;;4.13;;
912;SDS011;443;51.448;7.028;2023-11-22T09:28:13;5.10;;;3.20;;
912;SDS011;443;51.448;7.028;2023-11-22T09:30:41;3.97;;;3.37;;
912;SDS011;443;51.448;7.028;2023-11-22T09:33:10;6.43;;;3.10;;
912;SDS011;443;51.448;7.028;2023-11-22T09:35:39;6.97;;;4.00;;
912;SDS011;443;51.448;7.028;2023-11-22T09:38:08;5.27;;;2.50;;
912;SDS011;443;51.448;7.028;2023-11-22T09:40:37;5.00;;;3.30;;
912;SDS011;443;51.448;7.028;2023-11-22T09:43:06;4.70;;;3.17;;
912;SDS011;443;51.448;7.028;2023-11-22T09:45:33;6.23;;;3.80;;
912;SDS011;443;51.448;7.028;2023-11-22T09:48:01;4.47;;;3.30;;
912;SDS011;443;51.448;7.028;2023-11-22T09:50:33;4.23;;;3.80;;
912;SDS011;443;51.448;7.028;2023-11-22T09:53:07;4.00;;;2.70;;
912;SDS011;443;51.448;7.028;2023-11-22T09:55:38;4.10;;;2.50;;
912;SDS011;443;51.448;7.028;2023-11-22T09:58:07;4.53;;;3.60;;
912;SDS011;443;51.448;7.028;2023-11-22T10:00:36;5.80;;;3.50;;
912;SDS011;443;51.448;7.028;2023-11-22T10:03:06;6.20;;;2.93;;
912;SDS011;443;51.448;7.028;2023-11-22T10:05:34;7.40;;;3.77;;
912;SDS011;443;51.448;7.028;2023-11-22T10:08:01;6.63;;;3.00;;
912;SDS011;443;51.448;7.028;2023-11-22T10:10:27;4.00;;;2.87;;
912;SDS011;443;51.448;7.028;2023-11-22T10:12:57;6.53;;;3.47;;
912;SDS011;443;51.448;7.028;2023-11-22T10:15:27;3.47;;;2.50;;
912;SDS011;443;51.448;7.028;2023-11-22T10:17:55;4.60;;;3.13;;
912;SDS011;443;51.448;7.028;2023-11-22T10:20:23;4.53;;;3.67;;
912;SDS011;443;51.448;7.028;2023-11-22T10:22:52;6.43;;;3.90;;
912;SDS011;443;51.448;7.028;2023-11-22T10:25:19;4.07;;;3.07;;
912;SDS011;443;51.448;7.028;2023-11-22T10:27:48;5.53;;;3.57;;
912;SDS011;443;51.448;7.028;2023-11-22T10:30:16;6.07;;;3.30;;
912;SDS011;443;51.448;7.028;2023-11-22T10:32:43;6.60;;;3.40;;
912;SDS011;443;51.448;7.028;2023-11-22T10:35:10;6.67;;;3.90;;
912;SDS011;443;51.448;7.028;2023-11-22T10:37:41;5.30;;;4.40;;
912;SDS011;443;51.448;7.028;2023-11-22T10:40:11;3.77;;;3.00;;
912;SDS011;443;51.448;7.028;2023-11-22T10:42:39;6.27;;;3.43;;
912;SDS011;443;51.448;7.028;2023-11-22T10:45:08;6.77;;;3.93;;
912;SDS011;443;51.448;7.028;2023-11-22T10:47:36;4.83;;;2.93;;
912;SDS011;443;51.448;7.028;2023-11-22T10:50:05;4.20;;;2.73;;
912;SDS011;443;51.448;7.028;2023-11-22T10:52:33;3.60;;;2.20;;
912;SDS011;443;51.448;7.028;2023-11-22T10:55:02;4.73;;;3.07;;
912;SDS011;443;51.448;7.028;2023-11-22T10:57:32;3.50;;;2.13;;
912;SDS011;443;51.448;7.028;2023-11-22T11:00:04;4.57;;;2.60;;
912;SDS011;443;51.448;7.028;2023-11-22T11:02:35;3.17;;;2.43;;
912;SDS011;443;51.448;7.028;2023-11-22T11:05:07;3.00;;;2.23;;
912;SDS011;443;51.448;7.028;2023-11-22T11:07:42;2.90;;;2.03;;
912;SDS011;443;51.448;7.028;2023-11-22T11:10:15;6.03;;;2.37;;
912;SDS011;443;51.448;7.028;2023-11-22T11:12:45;3.53;;;2.20;;
912;SDS011;443;51.448;7.028;2023-11-22T11:15:12;3.60;;;2.50;;
912;SDS011;443;51.448;7.028;2023-11-22T11:17:41;3.63;;;2.47;;
912;SDS011;443;51.448;7.028;2023-11-22T11:20:10;5.00;;;1.97;;
912;SDS011;443;51.448;7.028;2023-11-22T11:22:38;3.40;;;2.37;;
912;SDS011;443;51.448;7.028;2023-11-22T11:25:05;4.90;;;2.80;;
912;SDS011;443;51.448;7.028;2023-11-22T11:27:33;2.73;;;2.13;;
912;SDS011;443;51.448;7.028;2023-11-22T11:30:02;2.70;;;2.07;;
912;SDS011;443;51.448;7.028;2023-11-22T11:33:06;6.47;;;2.93;;
912;SDS011;443;51.448;7.028;2023-11-22T11:35:37;5.40;;;3.03;;
912;SDS011;443;51.448;7.028;2023-11-22T11:38:04;2.60;;;2.07;;
912;SDS011;443;51.448;7.028;2023-11-22T11:40:34;3.97;;;2.10;;
912;SDS011;443;51.448;7.028;2023-11-22T11:43:01;3.37;;;2.13;;
912;SDS011;443;51.448;7.028;2023-11-22T11:45:31;5.50;;;3.00;;
912;SDS011;443;51.448;7.028;2023-11-22T11:48:04;3.57;;;2.73;;
912;SDS011;443;51.448;7.028;2023-11-22T11:50:31;5.17;;;2.97;;
912;SDS011;443;51.448;7.028;2023-11-22T11:52:57;4.50;;;2.60;;
912;SDS011;443;51.448;7.028;2023-11-22T11:55:25;2.53;;;2.03;;
912;SDS011;443;51.448;7.028;2023-11-22T11:57:53;2.67;;;1.93;;
912;SDS011;443;51.448;7.028;2023-11-22T12:00:20;3.00;;;2.13;;
912;SDS011;443;51.448;7.028;2023-11-22T12:02:50;2.63;;;2.20;;
912;SDS011;443;51.448;7.028;2023-11-22T12:05:20;3.87;;;2.97;;
912;SDS011;443;51.448;7.028;2023-11-22T12:07:47;3.47;;;2.47;;
912;SDS011;443;51.448;7.028;2023-11-22T12:10:14;4.00;;;3.20;;
912;SDS011;443;51.448;7.028;2023-11-22T12:12:42;5.07;;;2.67;;
912;SDS011;443;51.448;7.028;2023-11-22T12:15:10;3.67;;;2.77;;
912;SDS011;443;51.448;7.028;2023-11-22T12:17:38;3.87;;;2.33;;
912;SDS011;443;51.448;7.028;2023-11-22T12:20:09;5.63;;;3.73;;
912;SDS011;443;51.448;7.028;2023-11-22T12:22:38;3.93;;;2.97;;
912;SDS011;443;51.448;7.028;2023-11-22T12:25:06;3.60;;;2.63;;
912;SDS011;443;51.448;7.028;2023-11-22T12:27:33;3.87;;;3.30;;
912;SDS011;443;51.448;7.028;2023-11-22T12:30:04;4.70;;;2.87;;
912;SDS011;443;51.448;7.028;2023-11-22T12:32:32;4.47;;;3.60;;
912;SDS011;443;51.448;7.028;2023-11-22T12:34:59;3.17;;;2.00;;
912;SDS011;443;51.448;7.028;2023-11-22T12:37:28;3.80;;;1.90;;
912;SDS011;443;51.448;7.028;2023-11-22T12:39:54;3.63;;;2.63;;
912;SDS011;443;51.448;7.028;2023-11-22T12:42:21;3.90;;;2.10;;
912;SDS011;443;51.448;7.028;2023-11-22T12:44:49;6.17;;;2.33;;
912;SDS011;443;51.448;7.028;2023-11-22T12:47:30;3.10;;;2.80;;
912;SDS011;443;51.448;7.028;2023-11-22T12:50:00;3.03;;;2.20;;
912;SDS011;443;51.448;7.028;2023-11-22T12:52:28;4.80;;;2.83;;
912;SDS011;443;51.448;7.028;2023-11-22T12:54:57;3.67;;;2.33;;
912;SDS011;443;51.448;7.028;2023-11-22T12:57:24;4.23;;;2.90;;
912;SDS011;443;51.448;7.028;2023-11-22T12:59:51;4.03;;;2.37;;
912;SDS011;443;51.448;7.028;2023-11-22T13:02:18;4.03;;;2.13;;
912;SDS011;443;51.448;7.028;2023-11-22T13:04:45;3.03;;;1.80;;
912;SDS011;443;51.448;7.028;2023-11-22T13:07:12;2.83;;;1.90;;
912;SDS011;443;51.448;7.028;2023-11-22T13:09:40;2.50;;;1.90;;
912;SDS011;443;51.448;7.028;2023-11-22T13:12:07;1.77;;;1.40;;
912;SDS011;443;51.448;7.028;2023-11-22T13:14:34;4.10;;;1.37;;
912;SDS011;443;51.448;7.028;2023-11-22T13:17:03;3.53;;;1.47;;
912;SDS011;443;51.448;7.028;2023-11-22T13:19:32;2.40;;;1.27;;
912;SDS011;443;51.448;7.028;2023-11-22T13:21:58;3.73;;;1.60;;
912;SDS011;443;51.448;7.028;2023-11-22T13:24:25;4.63;;;1.50;;
912;SDS011;443;51.448;7.028;2023-11-22T13:26:53;2.63;;;1.60;;
912;SDS011;443;51.448;7.028;2023-11-22T13:29:20;2.00;;;1.33;;
912;SDS011;443;51.448;7.028;2023-11-22T13:31:46;2.20;;;1.20;;
912;SDS011;443;51.448;7.028;2023-11-22T13:34:13;1.93;;;1.60;;
912;SDS011;443;51.448;7.028;2023-11-22T13:36:40;2.03;;;1.63;;
912;SDS011;443;51.448;7.028;2023-11-22T13:39:06;3.03;;;2.10;;
912;SDS011;443;51.448;7.028;2023-11-22T13:41:34;2.73;;;2.20;;
912;SDS011;443;51.448;7.028;2023-11-22T13:44:02;4.30;;;1.53;;
912;SDS011;443;51.448;7.028;2023-11-22T13:46:29;2.20;;;1.57;;
912;SDS011;443;51.448;7.028;2023-11-22T13:48:55;2.70;;;2.07;;
912;SDS011;443;51.448;7.028;2023-11-22T13:51:23;1.97;;;1.43;;
912;SDS011;443;51.448;7.028;2023-11-22T13:53:50;1.83;;;1.37;;
912;SDS011;443;51.448;7.028;2023-11-22T13:56:18;1.93;;;1.30;;
912;SDS011;443;51.448;7.028;2023-11-22T13:58:45;2.57;;;1.60;;
912;SDS011;443;51.448;7.028;2023-11-22T14:01:13;2.00;;;1.17;;
912;SDS011;443;51.448;7.028;2023-11-22T14:03:46;4.40;;;1.40;;
912;SDS011;443;51.448;7.028;2023-11-22T14:06:13;2.30;;;1.80;;
912;SDS011;443;51.448;7.028;2023-11-22T14:08:42;1.37;;;1.07;;
912;SDS011;443;51.448;7.028;2023-11-22T14:11:09;3.00;;;1.63;;
912;SDS011;443;51.448;7.028;2023-11-22T14:13:36;1.63;;;1.07;;
912;SDS011;443;51.448;7.028;2023-11-22T14:16:05;2.87;;;1.87;;
912;SDS011;443;51.448;7.028;2023-11-22T14:18:33;3.10;;;1.50;;
912;SDS011;443;51.448;7.028;2023-11-22T14:21:00;1.93;;;1.30;;
912;SDS011;443;51.448;7.028;2023-11-22T14:23:28;2.00;;;1.30;;
912;SDS011;443;51.448;7.028;2023-11-22T14:25:54;5.33;;;1.93;;
912;SDS011;443;51.448;7.028;2023-11-22T14:28:21;2.30;;;1.13;;
912;SDS011;443;51.448;7.028;2023-11-22T14:30:49;1.83;;;1.20;;
912;SDS011;443;51.448;7.028;2023-11-22T14:33:19;2.87;;;1.87;;
912;SDS011;443;51.448;7.028;2023-11-22T14:35:47;2.60;;;1.57;;
912;SDS011;443;51.448;7.028;2023-11-22T14:38:14;2.10;;;1.43;;
912;SDS011;443;51.448;7.028;2023-11-22T14:40:42;3.07;;;1.93;;
912;SDS011;443;51.448;7.028;2023-11-22T14:43:09;2.90;;;1.60;;
912;SDS011;443;51.448;7.028;2023-11-22T14:45:36;4.30;;;2.30;;
912;SDS011;443;51.448;7.028;2023-11-22T14:48:04;1.83;;;1.47;;
912;SDS011;443;51.448;7.028;2023-11-22T14:50:32;2.83;;;2.27;;
912;SDS011;443;51.448;7.028;2023-11-22T14:53:00;6.40;;;2.13;;
912;SDS011;443;51.448;7.028;2023-11-22T14:55:27;5.30;;;2.13;;
912;SDS011;443;51.448;7.028;2023-11-22T14:57:54;2.70;;;2.07;;
912;SDS011;443;51.448;7.028;2023-11-22T15:00:22;3.30;;;1.87;;
912;SDS011;443;51.448;7.028;2023-11-22T15:02:50;2.60;;;1.83;;
912;SDS011;443;51.448;7.028;2023-11-22T15:05:19;4.90;;;2.23;;
912;SDS011;443;51.448;7.028;2023-11-22T15:07:47;2.00;;;1.63;;
912;SDS011;443;51.448;7.028;2023-11-22T15:10:21;3.10;;;1.90;;
912;SDS011;443;51.448;7.028;2023-11-22T15:12:48;4.40;;;2.50;;
912;SDS011;443;51.448;7.028;2023-11-22T15:15:15;3.20;;;2.50;;
912;SDS011;443;51.448;7.028;2023-11-22T15:17:43;3.50;;;1.93;;
912;SDS011;443;51.448;7.028;2023-11-22T15:20:10;4.33;;;2.70;;
912;SDS011;443;51.448;7.028;2023-11-22T15:22:40;4.80;;;2.33;;
912;SDS011;443;51.448;7.028;2023-11-22T15:25:07;2.93;;;2.40;;
912;SDS011;443;51.448;7.028;2023-11-22T15:27:36;3.50;;;2.17;;
912;SDS011;443;51.448;7.028;2023-11-22T15:30:03;3.90;;;3.10;;
912;SDS011;443;51.448;7.028;2023-11-22T15:32:32;3.33;;;2.60;;
912;SDS011;443;51.448;7.028;2023-11-22T15:34:59;5.13;;;2.87;;
912;SDS011;443;51.448;7.028;2023-11-22T15:37:28;5.20;;;2.50;;
912;SDS011;443;51.448;7.028;2023-11-22T15:39:55;11.07;;;3.40;;
912;SDS011;443;51.448;7.028;2023-11-22T15:42:22;6.17;;;4.20;;
912;SDS011;443;51.448;7.028;2023-11-22T15:44:50;9.80;;;6.70;;
912;SDS011;443;51.448;7.028;2023-11-22T15:47:17;12.60;;;6.70;;